createdAt,value
2019-03-19T00:00:39.959Z,0.00
2019-03-19T00:01:39.747Z,0.00
2019-03-19T00:02:39.729Z,0.00
2019-03-19T00:03:39.996Z,0.00
2019-03-19T00:04:39.687Z,0.00
2019-03-19T00:05:39.784Z,0.00
2019-03-19T00:06:41.234Z,0.00
2019-03-19T00:07:39.591Z,0.00
2019-03-19T00:08:39.566Z,0.00
2019-03-19T00:09:39.840Z,0.00
2019-03-19T00:10:39.513Z,0.00
2019-03-19T00:11:39.492Z,0.00
2019-03-19T00:12:39.530Z,0.00
2019-03-19T00:13:39.479Z,0.00
2019-03-19T00:14:39.407Z,0.00
2019-03-19T00:15:39.634Z,0.00
2019-03-19T00:16:39.354Z,0.00
2019-03-19T00:17:39.343Z,0.00
2019-03-19T00:18:39.313Z,0.00
2019-03-19T00:19:39.275Z,0.00
2019-03-19T00:20:39.252Z,0.00
2019-03-19T00:22:39.529Z,0.00
2019-03-19T00:23:39.238Z,0.00
2019-03-19T00:24:39.143Z,0.00
2019-03-19T00:25:39.226Z,0.00
2019-03-19T00:26:39.093Z,0.00
2019-03-19T00:27:39.073Z,0.00
2019-03-19T00:28:39.201Z,0.00
2019-03-19T00:29:39.327Z,0.00
2019-03-19T00:31:38.957Z,0.00
2019-03-19T00:32:39.097Z,0.00
2019-03-19T00:33:39.094Z,0.00
2019-03-19T00:34:38.939Z,0.00
2019-03-19T00:35:38.961Z,0.00
2019-03-19T00:36:39.127Z,0.00
2019-03-19T00:37:39.107Z,0.00
2019-03-19T00:38:38.883Z,0.00
2019-03-19T00:39:38.793Z,0.00
2019-03-19T00:41:39.171Z,0.00
2019-03-19T00:42:38.808Z,0.00
2019-03-19T00:43:38.994Z,0.00
2019-03-19T00:44:38.626Z,0.00
2019-03-19T00:45:38.611Z,0.00
2019-03-19T00:46:38.564Z,0.00
2019-03-19T00:47:38.547Z,0.00
2019-03-19T00:48:38.606Z,0.00
2019-03-19T00:49:38.486Z,0.00
2019-03-19T00:50:38.718Z,0.00
2019-03-19T00:51:38.435Z,0.00
2019-03-19T00:52:38.412Z,0.00
2019-03-19T00:53:38.384Z,0.00
2019-03-19T00:54:38.354Z,0.00
2019-03-19T00:55:41.012Z,0.00
2019-03-19T00:56:38.390Z,0.00
2019-03-19T00:57:38.578Z,0.00
2019-03-19T00:58:38.249Z,0.00
2019-03-19T00:59:38.224Z,0.00
2019-03-19T01:00:38.199Z,0.00
2019-03-19T01:01:38.930Z,0.00
2019-03-19T01:02:38.149Z,0.00
2019-03-19T01:03:38.167Z,0.00
2019-03-19T01:04:38.352Z,0.00
2019-03-19T01:05:38.061Z,0.00
2019-03-19T01:06:38.038Z,0.00
2019-03-19T01:07:38.019Z,0.00
2019-03-19T01:08:38.087Z,0.00
2019-03-19T01:09:38.060Z,0.00
2019-03-19T01:10:38.231Z,0.00
2019-03-19T01:11:37.915Z,0.00
2019-03-19T01:12:37.878Z,0.00
2019-03-19T01:13:37.855Z,0.00
2019-03-19T01:14:37.926Z,0.00
2019-03-19T01:15:37.804Z,0.00
2019-03-19T01:16:38.054Z,0.00
2019-03-19T01:17:37.765Z,0.00
2019-03-19T01:18:37.736Z,0.00
2019-03-19T01:19:37.700Z,0.00
2019-03-19T01:20:37.929Z,0.00
2019-03-19T01:22:38.065Z,0.00
2019-03-19T01:23:37.591Z,0.00
2019-03-19T01:24:37.668Z,0.00
2019-03-19T01:25:37.537Z,0.00
2019-03-19T01:26:37.509Z,0.00
2019-03-19T01:27:37.592Z,0.00
2019-03-19T01:28:37.709Z,0.00
2019-03-19T01:29:38.271Z,0.00
2019-03-19T01:31:37.393Z,0.00
2019-03-19T01:32:37.352Z,0.00
2019-03-19T01:33:37.396Z,0.00
2019-03-19T01:34:37.659Z,0.00
2019-03-19T01:35:37.273Z,0.00
2019-03-19T01:36:37.253Z,0.00
2019-03-19T01:37:37.224Z,0.00
2019-03-19T01:38:37.499Z,0.00
2019-03-19T01:39:37.173Z,0.00
2019-03-19T01:40:37.468Z,0.00
2019-03-19T01:41:37.133Z,0.00
2019-03-19T01:42:37.147Z,0.00
2019-03-19T01:43:37.069Z,0.00
2019-03-19T01:44:37.038Z,0.00
2019-03-19T01:45:37.012Z,0.00
2019-03-19T01:46:36.990Z,0.00
2019-03-19T01:48:37.180Z,0.00
2019-03-19T01:49:36.904Z,0.00
2019-03-19T01:50:36.874Z,0.00
2019-03-19T01:51:36.850Z,0.00
2019-03-19T01:53:36.799Z,0.00
2019-03-19T01:55:37.202Z,0.00
2019-03-19T01:57:36.696Z,0.00
2019-03-19T01:58:36.666Z,0.00
2019-03-19T01:59:36.653Z,0.00
2019-03-19T02:00:36.629Z,0.00
2019-03-19T02:01:36.590Z,0.00
2019-03-19T02:02:36.814Z,0.00
2019-03-19T02:03:36.534Z,0.00
2019-03-19T02:04:36.670Z,0.00
2019-03-19T02:05:36.479Z,0.00
2019-03-19T02:06:36.453Z,0.00
2019-03-19T02:07:36.426Z,0.00
2019-03-19T02:08:36.398Z,0.00
2019-03-19T02:09:36.726Z,0.00
2019-03-19T02:10:36.357Z,0.00
2019-03-19T02:11:38.286Z,0.00
2019-03-19T02:12:36.300Z,0.00
2019-03-19T02:13:36.268Z,0.00
2019-03-19T02:14:36.245Z,0.00
2019-03-19T02:15:36.559Z,0.00
2019-03-19T02:16:36.682Z,0.00
2019-03-19T02:17:36.164Z,0.00
2019-03-19T02:18:36.535Z,0.00
2019-03-19T02:19:36.123Z,0.00
2019-03-19T02:20:36.088Z,0.00
2019-03-19T02:21:36.130Z,0.00
2019-03-19T02:22:36.029Z,0.00
2019-03-19T02:24:36.324Z,0.00
2019-03-19T02:26:35.928Z,0.00
2019-03-19T02:27:35.900Z,0.00
2019-03-19T02:28:35.874Z,0.00
2019-03-19T02:29:35.850Z,0.00
2019-03-19T02:30:36.116Z,0.00
2019-03-19T02:31:35.789Z,0.00
2019-03-19T02:33:35.740Z,0.00
2019-03-19T02:34:35.715Z,0.00
2019-03-19T02:35:35.689Z,0.00
2019-03-19T02:36:35.974Z,0.00
2019-03-19T02:37:36.247Z,0.00
2019-03-19T02:38:35.734Z,0.00
2019-03-19T02:39:35.697Z,0.00
2019-03-19T02:40:35.630Z,0.00
2019-03-19T02:41:35.536Z,0.00
2019-03-19T02:42:35.797Z,0.00
2019-03-19T02:43:35.514Z,0.00
2019-03-19T02:44:35.625Z,0.00
2019-03-19T02:45:35.441Z,0.00
2019-03-19T02:46:35.478Z,0.00
2019-03-19T02:47:35.513Z,0.00
2019-03-19T02:48:35.734Z,0.00
2019-03-19T02:49:35.390Z,0.00
2019-03-19T02:50:35.319Z,0.00
2019-03-19T02:51:35.434Z,0.00
2019-03-19T02:52:35.612Z,0.00
2019-03-19T02:53:35.302Z,0.00
2019-03-19T02:54:36.081Z,0.00
2019-03-19T02:55:35.292Z,0.00
2019-03-19T02:56:35.195Z,0.00
2019-03-19T02:57:35.259Z,0.00
2019-03-19T02:58:35.225Z,0.00
2019-03-19T03:00:35.497Z,0.00
2019-03-19T03:02:35.123Z,0.00
2019-03-19T03:03:35.042Z,0.00
2019-03-19T03:04:35.390Z,0.00
2019-03-19T03:05:34.999Z,0.00
2019-03-19T03:06:35.335Z,0.00
2019-03-19T03:07:34.986Z,0.00
2019-03-19T03:08:35.018Z,0.00
2019-03-19T03:09:34.945Z,0.00
2019-03-19T03:10:34.871Z,0.00
2019-03-19T03:11:34.892Z,0.00
2019-03-19T03:13:35.107Z,0.00
2019-03-19T03:15:34.765Z,0.00
2019-03-19T03:17:34.663Z,0.00
2019-03-19T03:19:34.955Z,0.00
2019-03-19T03:21:34.861Z,0.00
2019-03-19T03:23:34.497Z,0.00
2019-03-19T03:24:34.478Z,0.00
2019-03-19T03:26:46.975Z,0.00
2019-03-19T03:27:34.598Z,0.00
2019-03-19T03:28:34.286Z,0.00
2019-03-19T03:29:34.354Z,0.00
2019-03-19T03:31:34.443Z,0.00
2019-03-19T03:32:34.480Z,0.00
2019-03-19T03:33:34.695Z,0.00
2019-03-19T03:34:34.219Z,0.00
2019-03-19T03:35:34.329Z,0.00
2019-03-19T03:36:34.885Z,0.00
2019-03-19T03:37:34.178Z,0.00
2019-03-19T03:38:34.029Z,0.00
2019-03-19T03:39:34.018Z,0.00
2019-03-19T03:40:35.563Z,0.00
2019-03-19T03:41:34.026Z,0.00
2019-03-19T03:43:34.031Z,0.00
2019-03-19T03:45:34.244Z,0.00
2019-03-19T03:46:33.935Z,0.00
2019-03-19T03:50:34.078Z,0.00
2019-03-19T03:51:33.831Z,0.00
2019-03-19T03:53:33.717Z,0.00
2019-03-19T03:54:33.735Z,0.00
2019-03-19T03:55:33.748Z,0.00
2019-03-19T03:56:33.972Z,0.00
2019-03-19T03:57:33.782Z,0.00
2019-03-19T03:58:33.569Z,0.00
2019-03-19T03:59:33.600Z,0.00
2019-03-19T04:00:33.550Z,0.00
2019-03-19T04:01:33.427Z,0.00
2019-03-19T04:02:33.743Z,0.00
2019-03-19T04:03:33.406Z,0.00
2019-03-19T04:04:33.422Z,0.00
2019-03-19T04:05:33.445Z,0.00
2019-03-19T04:06:33.389Z,0.00
2019-03-19T04:07:33.258Z,0.00
2019-03-19T04:09:33.573Z,0.00
2019-03-19T04:10:33.413Z,0.00
2019-03-19T04:11:33.212Z,0.00
2019-03-19T04:12:33.221Z,0.00
2019-03-19T04:13:33.211Z,0.00
2019-03-19T04:14:33.196Z,0.00
2019-03-19T04:16:33.398Z,0.00
2019-03-19T04:17:33.093Z,0.00
2019-03-19T04:20:32.980Z,0.00
2019-03-19T04:21:32.854Z,0.00
2019-03-19T04:22:33.189Z,0.00
2019-03-19T04:23:32.905Z,0.00
2019-03-19T04:24:32.884Z,0.00
2019-03-19T04:25:32.745Z,0.00
2019-03-19T04:26:32.726Z,0.00
2019-03-19T04:27:32.726Z,0.00
2019-03-19T04:28:32.774Z,0.00
2019-03-19T04:29:33.012Z,0.00
2019-03-19T04:30:32.682Z,0.00
2019-03-19T04:32:32.638Z,0.00
2019-03-19T04:33:32.692Z,0.00
2019-03-19T04:34:32.504Z,0.00
2019-03-19T04:35:32.475Z,0.00
2019-03-19T04:36:32.999Z,0.00
2019-03-19T04:37:32.582Z,0.00
2019-03-19T04:38:32.486Z,0.00
2019-03-19T04:39:32.377Z,0.00
2019-03-19T04:41:32.323Z,0.00
2019-03-19T04:43:32.583Z,0.00
2019-03-19T04:44:32.354Z,0.00
2019-03-19T04:45:32.341Z,0.00
2019-03-19T04:46:32.595Z,0.00
2019-03-19T04:47:32.263Z,0.00
2019-03-19T04:48:32.523Z,0.00
2019-03-19T04:49:32.242Z,0.00
2019-03-19T04:50:32.522Z,0.00
2019-03-19T04:51:32.286Z,0.00
2019-03-19T04:52:32.093Z,0.00
2019-03-19T04:53:31.997Z,0.00
2019-03-19T04:54:32.193Z,0.00
2019-03-19T04:55:32.031Z,0.00
2019-03-19T04:56:32.154Z,0.00
2019-03-19T04:57:32.361Z,0.00
2019-03-19T04:58:32.029Z,0.00
2019-03-19T04:59:31.920Z,0.00
2019-03-19T05:01:31.845Z,0.00
2019-03-19T05:02:32.261Z,0.00
2019-03-19T05:03:31.896Z,0.00
2019-03-19T05:04:32.110Z,0.00
2019-03-19T05:05:31.766Z,0.00
2019-03-19T05:06:31.658Z,0.00
2019-03-19T05:07:31.734Z,0.00
2019-03-19T05:08:31.778Z,0.00
2019-03-19T05:09:31.658Z,0.00
2019-03-19T05:10:31.570Z,0.00
2019-03-19T05:11:31.769Z,0.00
2019-03-19T05:12:31.662Z,0.00
2019-03-19T05:13:31.607Z,0.00
2019-03-19T05:14:31.627Z,0.00
2019-03-19T05:16:31.443Z,0.00
2019-03-19T05:17:31.625Z,0.00
2019-03-19T05:18:31.613Z,0.00
2019-03-19T05:19:31.311Z,5.63
2019-03-19T05:20:31.282Z,5.63
2019-03-19T05:21:31.258Z,5.63
2019-03-19T05:22:31.241Z,5.63
2019-03-19T05:23:31.449Z,5.63
2019-03-19T05:24:31.333Z,5.63
2019-03-19T05:25:31.261Z,5.63
2019-03-19T05:26:31.284Z,5.63
2019-03-19T05:27:37.342Z,11.25
2019-03-19T05:28:31.279Z,11.25
2019-03-19T05:29:31.547Z,11.25
2019-03-19T05:30:31.025Z,11.25
2019-03-19T05:31:31.135Z,11.25
2019-03-19T05:32:31.080Z,16.88
2019-03-19T05:33:30.956Z,16.88
2019-03-19T05:34:30.926Z,16.88
2019-03-19T05:35:31.491Z,16.88
2019-03-19T05:36:30.867Z,16.88
2019-03-19T05:37:30.846Z,22.50
2019-03-19T05:38:30.803Z,22.50
2019-03-19T05:39:30.847Z,22.50
2019-03-19T05:40:30.751Z,28.13
2019-03-19T05:42:30.977Z,28.13
2019-03-19T05:43:30.677Z,33.75
2019-03-19T05:44:30.652Z,33.75
2019-03-19T05:45:30.620Z,33.75
2019-03-19T05:46:30.896Z,33.75
2019-03-19T05:47:36.960Z,39.38
2019-03-19T05:48:30.790Z,39.38
2019-03-19T05:49:30.514Z,39.38
2019-03-19T05:50:30.488Z,45.00
2019-03-19T05:51:30.463Z,45.00
2019-03-19T05:52:30.440Z,45.00
2019-03-19T05:53:30.679Z,50.63
2019-03-19T05:54:30.545Z,50.63
2019-03-19T05:55:30.993Z,56.25
2019-03-19T05:57:30.725Z,56.25
2019-03-19T05:58:30.698Z,56.25
2019-03-19T05:59:30.487Z,56.25
2019-03-19T06:00:30.697Z,56.25
2019-03-19T06:01:30.492Z,56.25
2019-03-19T06:02:30.725Z,56.25
2019-03-19T06:03:30.230Z,61.88
2019-03-19T06:04:30.248Z,61.88
2019-03-19T06:05:30.365Z,61.88
2019-03-19T06:06:30.135Z,67.50
2019-03-19T06:08:30.485Z,67.50
2019-03-19T06:09:30.061Z,67.50
2019-03-19T06:10:30.118Z,73.13
2019-03-19T06:13:29.887Z,78.75
2019-03-19T06:14:29.951Z,78.75
2019-03-19T06:15:30.133Z,78.75
2019-03-19T06:16:29.903Z,78.75
2019-03-19T06:17:29.786Z,84.38
2019-03-19T06:18:34.982Z,84.38
2019-03-19T06:19:29.736Z,84.38
2019-03-19T06:20:29.695Z,90.00
2019-03-19T06:21:29.671Z,90.00
2019-03-19T06:22:29.900Z,90.00
2019-03-19T06:23:29.619Z,90.00
2019-03-19T06:24:29.643Z,90.00
2019-03-19T06:26:29.737Z,95.63
2019-03-19T06:27:31.021Z,95.63
2019-03-19T06:28:29.582Z,95.63
2019-03-19T06:29:29.708Z,101.25
2019-03-19T06:30:29.437Z,101.25
2019-03-19T06:31:29.415Z,101.25
2019-03-19T06:32:29.409Z,101.25
2019-03-19T06:33:29.457Z,106.88
2019-03-19T06:35:29.607Z,106.88
2019-03-19T06:36:29.535Z,106.88
2019-03-19T06:37:32.703Z,112.50
2019-03-19T06:38:29.227Z,112.50
2019-03-19T06:39:29.273Z,112.50
2019-03-19T06:40:29.169Z,118.13
2019-03-19T06:41:29.149Z,118.13
2019-03-19T06:42:29.384Z,118.13
2019-03-19T06:43:29.092Z,118.13
2019-03-19T06:44:29.084Z,118.13
2019-03-19T06:45:29.081Z,123.75
2019-03-19T06:46:29.029Z,123.75
2019-03-19T06:47:28.999Z,123.75
2019-03-19T06:48:29.273Z,129.38
2019-03-19T06:49:28.947Z,135.00
2019-03-19T06:50:28.913Z,140.63
2019-03-19T06:51:28.915Z,140.63
2019-03-19T06:52:28.860Z,146.25
2019-03-19T06:53:28.942Z,163.13
2019-03-19T06:54:29.172Z,140.63
2019-03-19T06:55:28.854Z,140.63
2019-03-19T06:56:28.858Z,135.00
2019-03-19T06:57:38.714Z,135.00
2019-03-19T06:58:28.702Z,140.63
2019-03-19T06:59:28.688Z,140.63
2019-03-19T07:01:29.323Z,140.63
2019-03-19T07:02:28.612Z,174.38
2019-03-19T07:03:28.605Z,168.75
2019-03-19T07:04:28.901Z,140.63
2019-03-19T07:05:28.587Z,146.25
2019-03-19T07:06:28.599Z,196.88
2019-03-19T07:07:28.861Z,185.63
2019-03-19T07:08:28.888Z,163.13
2019-03-19T07:09:29.016Z,157.50
2019-03-19T07:10:28.764Z,157.50
2019-03-19T07:11:28.440Z,146.25
2019-03-19T07:12:28.414Z,151.88
2019-03-19T07:14:28.403Z,151.88
2019-03-19T07:15:28.273Z,163.13
2019-03-19T07:16:28.273Z,163.13
2019-03-19T07:17:28.242Z,151.88
2019-03-19T07:18:28.376Z,151.88
2019-03-19T07:19:28.476Z,151.88
2019-03-19T07:21:28.456Z,157.50
2019-03-19T07:22:28.533Z,157.50
2019-03-19T07:23:29.976Z,163.13
2019-03-19T07:24:28.099Z,163.13
2019-03-19T07:25:28.123Z,157.50
2019-03-19T07:26:28.477Z,163.13
2019-03-19T07:29:27.941Z,168.75
2019-03-19T07:30:28.309Z,168.75
2019-03-19T07:31:31.157Z,174.38
2019-03-19T07:32:28.143Z,174.38
2019-03-19T07:33:27.815Z,174.38
2019-03-19T07:34:27.845Z,180.00
2019-03-19T07:35:27.796Z,180.00
2019-03-19T07:36:27.748Z,185.63
2019-03-19T07:37:28.082Z,185.63
2019-03-19T07:38:27.882Z,185.63
2019-03-19T07:39:28.048Z,196.88
2019-03-19T07:40:27.652Z,213.75
2019-03-19T07:41:27.642Z,213.75
2019-03-19T07:42:28.373Z,225.00
2019-03-19T07:43:27.575Z,230.63
2019-03-19T07:44:27.839Z,258.75
2019-03-19T07:45:28.677Z,303.75
2019-03-19T07:46:27.484Z,298.13
2019-03-19T07:47:28.230Z,320.63
2019-03-19T07:48:27.454Z,348.75
2019-03-19T07:49:27.470Z,382.50
2019-03-19T07:50:27.397Z,399.38
2019-03-19T07:51:27.672Z,405.00
2019-03-19T07:52:27.350Z,405.00
2019-03-19T07:54:27.311Z,354.38
2019-03-19T07:55:27.279Z,331.88
2019-03-19T07:56:27.258Z,337.50
2019-03-19T07:57:29.510Z,399.38
2019-03-19T07:59:27.184Z,416.25
2019-03-19T08:00:27.211Z,405.00
2019-03-19T08:01:27.156Z,427.50
2019-03-19T08:02:27.432Z,444.38
2019-03-19T08:03:27.463Z,483.75
2019-03-19T08:04:27.075Z,472.50
2019-03-19T08:06:27.023Z,478.13
2019-03-19T08:08:26.979Z,455.63
2019-03-19T08:09:27.865Z,399.38
2019-03-19T08:12:26.907Z,461.25
2019-03-19T08:13:26.879Z,309.38
2019-03-19T08:14:26.858Z,247.50
2019-03-19T08:15:27.078Z,236.25
2019-03-19T08:16:27.792Z,270.00
2019-03-19T08:18:26.757Z,236.25
2019-03-19T08:19:27.094Z,213.75
2019-03-19T08:21:27.322Z,298.13
2019-03-19T08:22:27.343Z,303.75
2019-03-19T08:23:27.029Z,365.63
2019-03-19T08:24:26.631Z,506.25
2019-03-19T08:25:26.614Z,466.88
2019-03-19T08:26:26.582Z,461.25
2019-03-19T08:27:26.974Z,416.25
2019-03-19T08:28:26.525Z,405.00
2019-03-19T08:29:26.515Z,444.38
2019-03-19T08:30:26.509Z,461.25
2019-03-19T08:31:26.464Z,461.25
2019-03-19T08:32:26.649Z,472.50
2019-03-19T08:33:26.746Z,478.13
2019-03-19T08:34:26.511Z,483.75
2019-03-19T08:35:26.434Z,489.38
2019-03-19T08:36:26.357Z,506.25
2019-03-19T08:37:26.312Z,483.75
2019-03-19T08:38:26.595Z,472.50
2019-03-19T08:40:26.313Z,455.63
2019-03-19T08:41:26.326Z,399.38
2019-03-19T08:42:26.216Z,376.88
2019-03-19T08:43:26.183Z,382.50
2019-03-19T08:44:28.013Z,416.25
2019-03-19T08:45:26.447Z,455.63
2019-03-19T08:46:26.114Z,478.13
2019-03-19T08:47:26.188Z,483.75
2019-03-19T08:48:26.084Z,399.38
2019-03-19T08:49:26.043Z,253.13
2019-03-19T08:50:26.021Z,258.75
2019-03-19T08:51:25.997Z,410.63
2019-03-19T08:52:26.343Z,450.00
2019-03-19T08:53:25.979Z,348.75
2019-03-19T08:54:25.938Z,326.25
2019-03-19T08:55:25.918Z,388.13
2019-03-19T08:56:25.940Z,399.38
2019-03-19T08:57:26.024Z,421.88
2019-03-19T08:58:26.158Z,517.50
2019-03-19T08:59:25.821Z,466.88
2019-03-19T09:00:25.797Z,405.00
2019-03-19T09:04:26.104Z,646.88
2019-03-19T09:05:25.824Z,787.50
2019-03-19T09:06:26.007Z,686.25
2019-03-19T09:07:25.681Z,742.50
2019-03-19T09:08:25.638Z,618.75
2019-03-19T09:09:25.620Z,759.38
2019-03-19T09:10:25.698Z,826.88
2019-03-19T09:11:25.980Z,905.63
2019-03-19T09:12:26.796Z,731.25
2019-03-19T09:14:25.530Z,691.88
2019-03-19T09:15:25.491Z,725.63
2019-03-19T09:16:25.473Z,714.38
2019-03-19T09:17:25.756Z,528.75
2019-03-19T09:19:25.453Z,500.63
2019-03-19T09:20:25.389Z,1597.50
2019-03-19T09:21:25.377Z,1906.88
2019-03-19T09:23:25.686Z,2283.75
2019-03-19T09:24:25.316Z,601.88
2019-03-19T09:25:25.320Z,2711.25
2019-03-19T09:26:25.379Z,2835.00
2019-03-19T09:27:25.254Z,2581.88
2019-03-19T09:28:25.238Z,2908.13
2019-03-19T09:29:25.612Z,646.88
2019-03-19T09:30:25.262Z,2925.00
2019-03-19T09:31:25.319Z,2925.00
2019-03-19T09:32:25.168Z,3121.88
2019-03-19T09:33:25.162Z,3127.50
2019-03-19T09:34:25.132Z,3020.63
2019-03-19T09:35:26.377Z,3054.38
2019-03-19T09:36:25.096Z,3403.13
2019-03-19T09:38:25.050Z,3498.75
2019-03-19T09:39:25.346Z,3436.88
2019-03-19T09:41:25.607Z,646.88
2019-03-19T09:45:24.940Z,466.88
2019-03-19T09:46:24.917Z,410.63
2019-03-19T09:48:25.124Z,360.00
2019-03-19T09:49:24.886Z,343.13
2019-03-19T09:50:24.841Z,371.25
2019-03-19T09:51:24.942Z,360.00
2019-03-19T09:52:24.827Z,309.38
2019-03-19T09:53:24.797Z,331.88
2019-03-19T09:54:25.080Z,326.25
2019-03-19T09:55:24.846Z,326.25
2019-03-19T09:56:24.768Z,376.88
2019-03-19T09:57:25.208Z,461.25
2019-03-19T09:59:27.318Z,326.25
2019-03-19T10:00:24.959Z,292.50
2019-03-19T10:01:24.644Z,281.25
2019-03-19T10:02:24.630Z,275.63
2019-03-19T10:04:24.578Z,275.63
2019-03-19T10:05:24.625Z,331.88
2019-03-19T10:06:24.874Z,551.25
2019-03-19T10:07:24.530Z,658.13
2019-03-19T10:08:24.511Z,1501.88
2019-03-19T10:09:24.482Z,663.75
2019-03-19T10:11:24.478Z,1288.13
2019-03-19T10:12:24.806Z,1170.00
2019-03-19T10:13:24.411Z,1074.38
2019-03-19T10:14:24.427Z,1085.63
2019-03-19T10:15:24.454Z,1198.13
2019-03-19T10:16:24.346Z,1344.38
2019-03-19T10:17:24.355Z,1395.00
2019-03-19T10:19:24.683Z,1276.88
2019-03-19T10:20:24.313Z,1231.88
2019-03-19T10:21:25.605Z,770.63
2019-03-19T10:22:24.317Z,1305.00
2019-03-19T10:23:24.251Z,888.75
2019-03-19T10:24:24.275Z,1344.38
2019-03-19T10:25:24.543Z,753.75
2019-03-19T10:26:24.188Z,821.25
2019-03-19T10:27:24.216Z,1040.63
2019-03-19T10:28:24.158Z,815.63
2019-03-19T10:29:24.133Z,759.38
2019-03-19T10:30:24.167Z,613.13
2019-03-19T10:31:24.421Z,495.00
2019-03-19T10:32:24.095Z,399.38
2019-03-19T10:33:24.130Z,348.75
2019-03-19T10:34:24.137Z,315.00
2019-03-19T10:35:24.133Z,286.88
2019-03-19T10:36:24.339Z,241.88
2019-03-19T10:37:24.967Z,236.25
2019-03-19T10:39:23.968Z,225.00
2019-03-19T10:40:23.937Z,213.75
2019-03-19T10:42:23.926Z,185.63
2019-03-19T10:43:24.262Z,191.25
2019-03-19T10:44:23.967Z,225.00
2019-03-19T10:45:23.960Z,230.63
2019-03-19T10:46:23.838Z,241.88
2019-03-19T10:47:23.810Z,202.50
2019-03-19T10:48:23.954Z,191.25
2019-03-19T10:49:24.178Z,196.88
2019-03-19T10:50:24.086Z,219.38
2019-03-19T10:51:23.898Z,258.75
2019-03-19T10:52:23.713Z,309.38
2019-03-19T10:53:23.698Z,348.75
2019-03-19T10:54:23.674Z,393.75
2019-03-19T10:55:23.995Z,466.88
2019-03-19T10:56:23.633Z,523.13
2019-03-19T10:58:23.602Z,725.63
2019-03-19T10:59:23.666Z,601.88
2019-03-19T11:00:23.574Z,607.50
2019-03-19T11:01:23.934Z,523.13
2019-03-19T11:02:23.513Z,450.00
2019-03-19T11:03:23.503Z,444.38
2019-03-19T11:04:23.477Z,483.75
2019-03-19T11:05:23.460Z,506.25
2019-03-19T11:06:23.667Z,528.75
2019-03-19T11:08:23.643Z,495.00
2019-03-19T11:09:23.372Z,416.25
2019-03-19T11:10:23.387Z,365.63
2019-03-19T11:11:23.336Z,360.00
2019-03-19T11:12:23.320Z,365.63
2019-03-19T11:13:23.325Z,933.75
2019-03-19T11:14:23.651Z,523.13
2019-03-19T11:15:23.259Z,568.13
2019-03-19T11:16:23.348Z,466.88
2019-03-19T11:17:23.261Z,405.00
2019-03-19T11:18:23.195Z,371.25
2019-03-19T11:19:23.204Z,354.38
2019-03-19T11:20:23.469Z,354.38
2019-03-19T11:21:23.166Z,382.50
2019-03-19T11:22:23.123Z,438.75
2019-03-19T11:23:23.099Z,371.25
2019-03-19T11:24:23.085Z,365.63
2019-03-19T11:25:23.147Z,517.50
2019-03-19T11:26:23.292Z,360.00
2019-03-19T11:27:23.790Z,405.00
2019-03-19T11:28:23.016Z,444.38
2019-03-19T11:30:23.840Z,646.88
2019-03-19T11:32:23.181Z,534.38
2019-03-19T11:34:22.902Z,708.75
2019-03-19T11:35:22.879Z,860.63
2019-03-19T11:36:22.872Z,1001.25
2019-03-19T11:37:22.872Z,680.63
2019-03-19T11:38:23.120Z,585.00
2019-03-19T11:39:22.802Z,540.00
2019-03-19T11:40:25.449Z,528.75
2019-03-19T11:41:22.842Z,500.63
2019-03-19T11:42:23.126Z,427.50
2019-03-19T11:43:22.714Z,343.13
2019-03-19T11:44:23.012Z,298.13
2019-03-19T11:45:22.774Z,275.63
2019-03-19T11:46:22.667Z,281.25
2019-03-19T11:48:22.789Z,382.50
2019-03-19T11:49:22.613Z,444.38
2019-03-19T11:50:22.910Z,433.13
2019-03-19T11:51:22.835Z,748.13
2019-03-19T11:52:22.555Z,753.75
2019-03-19T11:53:22.574Z,793.13
2019-03-19T11:55:22.498Z,708.75
2019-03-19T11:56:22.844Z,843.75
2019-03-19T11:57:22.457Z,658.13
2019-03-19T11:58:22.578Z,798.75
2019-03-19T11:59:22.622Z,736.88
2019-03-19T12:00:22.408Z,680.63
2019-03-19T12:02:26.132Z,556.88
2019-03-19T12:03:25.307Z,545.63
2019-03-19T12:04:22.347Z,585.00
2019-03-19T12:05:22.342Z,652.50
2019-03-19T12:06:22.736Z,714.38
2019-03-19T12:07:22.287Z,776.25
2019-03-19T12:08:22.603Z,736.88
2019-03-19T12:09:22.744Z,675.00
2019-03-19T12:11:23.943Z,483.75
2019-03-19T12:12:22.233Z,416.25
2019-03-19T12:13:22.393Z,365.63
2019-03-19T12:14:22.481Z,303.75
2019-03-19T12:15:22.466Z,264.38
2019-03-19T12:16:22.446Z,270.00
2019-03-19T12:17:24.671Z,298.13
2019-03-19T12:18:22.747Z,315.00
2019-03-19T12:19:23.217Z,320.63
2019-03-19T12:21:22.376Z,483.75
2019-03-19T12:22:22.016Z,624.38
2019-03-19T12:23:25.413Z,720.00
2019-03-19T12:24:21.976Z,725.63
2019-03-19T12:25:21.991Z,787.50
2019-03-19T12:26:21.948Z,675.00
2019-03-19T12:28:23.134Z,573.75
2019-03-19T12:29:21.982Z,916.88
2019-03-19T12:30:24.759Z,630.00
2019-03-19T12:31:22.030Z,843.75
2019-03-19T12:33:22.123Z,736.88
2019-03-19T12:34:22.107Z,776.25
2019-03-19T12:35:21.816Z,810.00
2019-03-19T12:36:21.767Z,495.00
2019-03-19T12:37:21.753Z,855.00
2019-03-19T12:38:21.797Z,888.75
2019-03-19T12:39:22.017Z,950.63
2019-03-19T12:40:21.702Z,1018.13
2019-03-19T12:41:21.818Z,849.38
2019-03-19T12:43:21.888Z,691.88
2019-03-19T12:44:23.292Z,652.50
2019-03-19T12:45:22.066Z,613.13
2019-03-19T12:46:21.608Z,855.00
2019-03-19T12:47:21.589Z,916.88
2019-03-19T12:49:21.563Z,472.50
2019-03-19T12:50:21.642Z,455.63
2019-03-19T12:51:21.840Z,427.50
2019-03-19T12:52:21.511Z,405.00
2019-03-19T12:53:21.503Z,376.88
2019-03-19T12:54:21.530Z,354.38
2019-03-19T12:55:22.522Z,348.75
2019-03-19T12:57:21.793Z,354.38
2019-03-19T12:58:21.411Z,365.63
2019-03-19T12:59:21.549Z,365.63
2019-03-19T13:00:32.946Z,354.38
2019-03-19T13:02:21.621Z,326.25
2019-03-19T13:03:21.640Z,303.75
2019-03-19T13:04:21.358Z,258.75
2019-03-19T13:05:22.648Z,258.75
2019-03-19T13:07:21.279Z,286.88
2019-03-19T13:08:21.246Z,309.38
2019-03-19T13:09:22.382Z,320.63
2019-03-19T13:11:21.183Z,365.63
2019-03-19T13:12:21.149Z,382.50
2019-03-19T13:13:21.503Z,382.50
2019-03-19T13:14:21.110Z,821.25
2019-03-19T13:15:21.376Z,427.50
2019-03-19T13:16:21.343Z,337.50
2019-03-19T13:17:24.182Z,270.00
2019-03-19T13:18:21.366Z,230.63
2019-03-19T13:20:21.019Z,174.38
2019-03-19T13:21:20.974Z,146.25
2019-03-19T13:22:23.406Z,140.63
2019-03-19T13:23:21.160Z,163.13
2019-03-19T13:24:21.648Z,185.63
2019-03-19T13:25:20.901Z,196.88
2019-03-19T13:26:20.884Z,202.50
2019-03-19T13:27:20.857Z,191.25
2019-03-19T13:28:21.155Z,196.88
2019-03-19T13:29:20.807Z,225.00
2019-03-19T13:30:20.804Z,275.63
2019-03-19T13:31:20.840Z,320.63
2019-03-19T13:32:20.816Z,337.50
2019-03-19T13:33:21.995Z,354.38
2019-03-19T13:34:20.952Z,365.63
2019-03-19T13:35:20.887Z,393.75
2019-03-19T13:36:20.733Z,433.13
2019-03-19T13:39:20.605Z,866.25
2019-03-19T13:40:20.874Z,528.75
2019-03-19T13:41:20.557Z,472.50
2019-03-19T13:42:20.541Z,444.38
2019-03-19T13:44:20.495Z,343.13
2019-03-19T13:45:20.578Z,292.50
2019-03-19T13:46:20.765Z,258.75
2019-03-19T13:48:20.418Z,191.25
2019-03-19T13:49:20.505Z,180.00
2019-03-19T13:50:20.477Z,180.00
2019-03-19T13:51:20.588Z,196.88
2019-03-19T13:52:21.095Z,191.25
2019-03-19T13:53:20.605Z,157.50
2019-03-19T13:54:20.310Z,123.75
2019-03-19T13:55:20.636Z,123.75
2019-03-19T13:56:20.586Z,129.38
2019-03-19T13:57:21.068Z,129.38
2019-03-19T13:58:20.528Z,106.88
2019-03-19T13:59:20.206Z,101.25
2019-03-19T14:00:20.483Z,101.25
2019-03-19T14:01:20.211Z,112.50
2019-03-19T14:02:20.171Z,129.38
2019-03-19T14:03:20.134Z,157.50
2019-03-19T14:04:21.201Z,196.88
2019-03-19T14:05:20.074Z,225.00
2019-03-19T14:06:20.075Z,247.50
2019-03-19T14:07:20.143Z,281.25
2019-03-19T14:08:20.464Z,303.75
2019-03-19T14:09:20.002Z,315.00
2019-03-19T14:10:20.355Z,320.63
2019-03-19T14:11:19.966Z,320.63
2019-03-19T14:12:19.955Z,315.00
2019-03-19T14:13:19.910Z,309.38
2019-03-19T14:14:20.067Z,309.38
2019-03-19T14:15:19.927Z,320.63
2019-03-19T14:16:20.110Z,315.00
2019-03-19T14:17:19.836Z,303.75
2019-03-19T14:18:19.819Z,292.50
2019-03-19T14:19:19.794Z,298.13
2019-03-19T14:20:19.776Z,320.63
2019-03-19T14:21:19.769Z,337.50
2019-03-19T14:23:19.963Z,765.00
2019-03-19T14:24:19.808Z,770.63
2019-03-19T14:25:19.689Z,360.00
2019-03-19T14:27:19.625Z,326.25
2019-03-19T14:28:19.876Z,444.38